createdAt,value
2022-09-28T00:01:00.378Z,988.8
2022-09-28T00:02:03.362Z,988.8
2022-09-28T00:03:06.988Z,988.8
2022-09-28T00:04:10.574Z,988.7
2022-09-28T00:05:13.905Z,988.8
2022-09-28T00:06:16.681Z,988.8
2022-09-28T00:07:20.047Z,988.8
2022-09-28T00:08:22.758Z,988.8
2022-09-28T00:09:26.746Z,988.8
2022-09-28T00:10:29.606Z,988.8
2022-09-28T00:11:32.101Z,988.8
2022-09-28T00:12:36.299Z,988.8
2022-09-28T00:13:39.071Z,988.8
2022-09-28T00:14:42.058Z,988.8
2022-09-28T00:15:45.474Z,988.8
2022-09-28T00:16:49.073Z,988.8
2022-09-28T00:17:53.300Z,988.8
2022-09-28T00:18:56.009Z,988.8
2022-09-28T00:19:59.078Z,988.8
2022-09-28T00:21:02.144Z,988.8
2022-09-28T00:22:05.337Z,988.8
2022-09-28T00:23:08.477Z,988.8
2022-09-28T00:24:11.001Z,988.8
2022-09-28T00:25:14.143Z,988.8
2022-09-28T00:26:17.407Z,988.8
2022-09-28T00:27:20.302Z,988.8
2022-09-28T00:28:24.588Z,988.8
2022-09-28T00:29:27.722Z,988.8
2022-09-28T00:30:30.783Z,988.8
2022-09-28T00:31:33.443Z,988.8
2022-09-28T00:32:36.734Z,988.7
2022-09-28T00:33:39.885Z,988.8
2022-09-28T00:34:42.651Z,988.8
2022-09-28T00:35:45.208Z,988.7
2022-09-28T00:36:48.458Z,988.7
2022-09-28T00:37:51.226Z,988.7
2022-09-28T00:38:54.678Z,988.7
2022-09-28T00:39:58.398Z,988.7
2022-09-28T00:41:01.524Z,988.7
2022-09-28T00:42:04.754Z,988.7
2022-09-28T00:43:07.353Z,988.7
2022-09-28T00:44:11.230Z,988.7
2022-09-28T00:45:14.010Z,988.7
2022-09-28T00:46:16.596Z,988.6
2022-09-28T00:47:20.674Z,988.7
2022-09-28T00:48:24.096Z,988.6
2022-09-28T00:49:27.054Z,988.6
2022-09-28T00:50:30.135Z,988.6
2022-09-28T00:51:33.293Z,988.6
2022-09-28T00:52:36.452Z,988.6
2022-09-28T00:53:39.519Z,988.6
2022-09-28T00:54:43.011Z,988.6
2022-09-28T00:55:46.444Z,988.5
2022-09-28T00:56:49.617Z,988.5
2022-09-28T00:57:52.604Z,988.5
2022-09-28T00:58:56.068Z,988.6
2022-09-28T01:00:00.367Z,988.5
2022-09-28T01:01:03.418Z,988.6
2022-09-28T01:02:07.135Z,988.5
2022-09-28T01:03:10.267Z,988.5
2022-09-28T01:04:13.050Z,988.6
2022-09-28T01:05:15.576Z,988.6
2022-09-28T01:06:19.026Z,988.5
2022-09-28T01:07:21.899Z,988.6
2022-09-28T01:08:24.897Z,988.5
2022-09-28T01:09:27.772Z,988.6
2022-09-28T01:10:31.388Z,988.6
2022-09-28T01:11:34.542Z,988.6
2022-09-28T01:12:37.414Z,988.5
2022-09-28T01:13:40.131Z,988.6
2022-09-28T01:14:42.735Z,988.6
2022-09-28T01:15:46.890Z,988.5
2022-09-28T01:16:50.867Z,988.5
2022-09-28T01:17:53.564Z,988.5
2022-09-28T01:18:55.808Z,988.5
2022-09-28T01:19:58.046Z,988.6
2022-09-28T01:21:01.450Z,988.5
2022-09-28T01:22:04.794Z,988.6
2022-09-28T01:23:07.389Z,988.5
2022-09-28T01:24:10.221Z,988.5
2022-09-28T01:25:12.457Z,988.5
2022-09-28T01:26:15.325Z,988.6
2022-09-28T01:27:17.567Z,988.6
2022-09-28T01:28:20.280Z,988.5
2022-09-28T01:29:23.381Z,988.5
2022-09-28T01:30:25.974Z,988.5
2022-09-28T01:31:30.305Z,988.6
2022-09-28T01:32:34.294Z,988.5
2022-09-28T01:33:37.020Z,988.5
2022-09-28T01:34:40.099Z,988.5
2022-09-28T01:35:43.002Z,988.5
2022-09-28T01:36:45.326Z,988.5
2022-09-28T01:37:48.325Z,988.5
2022-09-28T01:38:51.418Z,988.5
2022-09-28T01:39:55.194Z,988.5
2022-09-28T01:40:58.153Z,988.5
2022-09-28T01:42:01.450Z,988.5
2022-09-28T01:43:04.046Z,988.5
2022-09-28T01:44:06.571Z,988.5
2022-09-28T01:45:09.752Z,988.5
2022-09-28T01:46:12.709Z,988.5
2022-09-28T01:47:17.233Z,988.5
2022-09-28T01:48:20.303Z,988.5
2022-09-28T01:49:24.321Z,988.4
2022-09-28T01:50:27.569Z,988.4
2022-09-28T01:51:30.729Z,988.5
2022-09-28T01:52:33.342Z,988.4
2022-09-28T01:53:35.854Z,988.4
2022-09-28T01:54:38.650Z,988.4
2022-09-28T01:55:42.378Z,988.4
2022-09-28T01:56:45.994Z,988.5
2022-09-28T01:57:48.990Z,988.4
2022-09-28T01:58:51.782Z,988.4
2022-09-28T01:59:55.132Z,988.4
2022-09-28T02:00:57.869Z,988.4
2022-09-28T02:02:01.720Z,988.4
2022-09-28T02:03:06.252Z,988.4
2022-09-28T02:04:09.381Z,988.4
2022-09-28T02:05:12.576Z,988.4
2022-09-28T02:06:15.365Z,988.4
2022-09-28T02:07:18.248Z,988.4
2022-09-28T02:08:21.909Z,988.4
2022-09-28T02:09:24.992Z,988.4
2022-09-28T02:10:36.038Z,988.4
2022-09-28T02:11:39.376Z,988.4
2022-09-28T02:12:41.700Z,988.4
2022-09-28T02:13:44.493Z,988.4
2022-09-28T02:14:47.361Z,988.4
2022-09-28T02:15:50.735Z,988.4
2022-09-28T02:16:53.451Z,988.4
2022-09-28T02:17:56.169Z,988.4
2022-09-28T02:19:00.322Z,988.4
2022-09-28T02:20:03.102Z,988.4
2022-09-28T02:21:05.898Z,988.4
2022-09-28T02:22:08.781Z,988.4
2022-09-28T02:23:12.205Z,988.4
2022-09-28T02:24:21.621Z,988.4
2022-09-28T02:25:24.747Z,988.4
2022-09-28T02:26:28.090Z,988.4
2022-09-28T02:27:31.783Z,988.4
2022-09-28T02:28:34.224Z,988.4
2022-09-28T02:29:37.292Z,988.3
2022-09-28T02:30:40.712Z,988.3
2022-09-28T02:31:44.196Z,988.3
2022-09-28T02:32:47.255Z,988.3
2022-09-28T02:33:50.326Z,988.4
2022-09-28T02:34:54.586Z,988.4
2022-09-28T02:35:57.750Z,988.3
2022-09-28T02:37:00.732Z,988.3
2022-09-28T02:38:04.163Z,988.3
2022-09-28T02:39:07.519Z,988.3
2022-09-28T02:40:10.586Z,988.4
2022-09-28T02:41:13.657Z,988.3
2022-09-28T02:42:16.460Z,988.3
2022-09-28T02:43:20.468Z,988.3
2022-09-28T02:44:23.183Z,988.4
2022-09-28T02:45:26.733Z,988.3
2022-09-28T02:46:29.822Z,988.3
2022-09-28T02:47:32.893Z,988.3
2022-09-28T02:48:47.258Z,988.3
2022-09-28T02:50:25.927Z,988.3
2022-09-28T02:51:28.735Z,988.3
2022-09-28T02:52:31.451Z,988.3
2022-09-28T02:53:34.242Z,988.3
2022-09-28T02:54:37.412Z,988.3
2022-09-28T02:55:40.507Z,988.2
2022-09-28T02:56:43.495Z,988.2
2022-09-28T02:57:46.287Z,988.3
2022-09-28T02:58:49.467Z,988.3
2022-09-28T02:59:51.900Z,988.3
2022-09-28T03:00:55.135Z,988.2
2022-09-28T03:01:58.145Z,988.3
2022-09-28T03:03:01.814Z,988.3
2022-09-28T03:04:05.238Z,988.3
2022-09-28T03:05:07.545Z,988.3
2022-09-28T03:06:11.123Z,988.2
2022-09-28T03:07:13.840Z,988.3
2022-09-28T03:08:16.903Z,988.3
2022-09-28T03:09:19.778Z,988.3
2022-09-28T03:10:22.484Z,988.3
2022-09-28T03:11:25.773Z,988.3
2022-09-28T03:12:28.090Z,988.3
2022-09-28T03:13:30.793Z,988.3
2022-09-28T03:14:33.873Z,988.2
2022-09-28T03:15:37.040Z,988.2
2022-09-28T03:16:40.280Z,988.3
2022-09-28T03:17:43.650Z,988.3
2022-09-28T03:18:46.539Z,988.3
2022-09-28T03:19:49.804Z,988.3
2022-09-28T03:20:53.258Z,988.3
2022-09-28T03:21:57.381Z,988.3
2022-09-28T03:23:25.209Z,988.3
2022-09-28T03:24:28.748Z,988.3
2022-09-28T03:25:31.408Z,988.3
2022-09-28T03:26:34.195Z,988.3
2022-09-28T03:27:37.535Z,988.3
2022-09-28T03:28:39.567Z,988.2
2022-09-28T03:29:42.363Z,988.2
2022-09-28T03:30:45.225Z,988.2
2022-09-28T03:31:48.596Z,988.2
2022-09-28T03:32:51.884Z,988.2
2022-09-28T03:33:55.061Z,988.2
2022-09-28T03:34:58.442Z,988.2
2022-09-28T03:36:01.304Z,988.2
2022-09-28T03:37:05.174Z,988.2
2022-09-28T03:38:08.806Z,988.2
2022-09-28T03:39:11.697Z,988.2
2022-09-28T03:40:14.479Z,988.2
2022-09-28T03:41:17.208Z,988.2
2022-09-28T03:42:20.292Z,988.2
2022-09-28T03:43:22.800Z,988.2
2022-09-28T03:44:25.880Z,988.2
2022-09-28T03:45:29.072Z,988.2
2022-09-28T03:46:32.752Z,988.2
2022-09-28T03:47:35.733Z,988.2
2022-09-28T03:48:38.332Z,988.2
2022-09-28T03:49:41.127Z,988.2
2022-09-28T03:50:44.275Z,988.1
2022-09-28T03:51:47.720Z,988.1
2022-09-28T03:52:51.843Z,988.2
2022-09-28T03:53:55.303Z,988.2
2022-09-28T03:54:58.403Z,988.2
2022-09-28T03:56:01.340Z,988.2
2022-09-28T03:57:04.257Z,988.2
2022-09-28T03:58:07.146Z,988.2
2022-09-28T03:59:09.654Z,988.2
2022-09-28T04:00:12.257Z,988.2
2022-09-28T04:01:18.445Z,988.2
2022-09-28T04:02:22.377Z,988.2
2022-09-28T04:03:25.705Z,988.2
2022-09-28T04:04:28.255Z,988.2
2022-09-28T04:05:31.042Z,988.2
2022-09-28T04:06:33.750Z,988.2
2022-09-28T04:07:36.579Z,988.2
2022-09-28T04:08:40.733Z,988.2
2022-09-28T04:09:43.990Z,988.2
2022-09-28T04:10:47.396Z,988.2
2022-09-28T04:12:04.652Z,988.2
2022-09-28T04:13:08.352Z,988.2
2022-09-28T04:14:11.446Z,988.1
2022-09-28T04:15:14.515Z,988.1
2022-09-28T04:16:18.225Z,988.1
2022-09-28T04:17:21.766Z,988.1
2022-09-28T04:18:24.633Z,988.1
2022-09-28T04:19:27.718Z,988
2022-09-28T04:20:30.499Z,988
2022-09-28T04:21:33.295Z,988.1
2022-09-28T04:22:36.672Z,988
2022-09-28T04:23:40.146Z,988
2022-09-28T04:24:44.270Z,988
2022-09-28T04:25:47.731Z,988
2022-09-28T04:26:51.451Z,988
2022-09-28T04:27:54.614Z,988
2022-09-28T04:28:59.813Z,988
2022-09-28T04:30:09.066Z,988
2022-09-28T04:31:12.379Z,988
2022-09-28T04:32:15.257Z,988
2022-09-28T04:33:18.972Z,988
2022-09-28T04:34:22.421Z,988
2022-09-28T04:35:25.291Z,988
2022-09-28T04:36:28.638Z,988
2022-09-28T04:37:31.780Z,988
2022-09-28T04:38:53.578Z,988
2022-09-28T04:39:57.743Z,987.9
2022-09-28T04:41:00.921Z,987.9
2022-09-28T04:42:04.624Z,988
2022-09-28T04:43:08.443Z,987.9
2022-09-28T04:44:11.339Z,987.9
2022-09-28T04:45:15.063Z,987.9
2022-09-28T04:46:18.668Z,987.9
2022-09-28T04:47:21.916Z,987.9
2022-09-28T04:48:24.438Z,988
2022-09-28T04:49:27.823Z,987.9
2022-09-28T04:50:30.723Z,988
2022-09-28T04:51:33.873Z,987.9
2022-09-28T04:52:36.587Z,988
2022-09-28T04:53:39.848Z,987.9
2022-09-28T04:54:42.647Z,988
2022-09-28T04:55:46.770Z,987.9
2022-09-28T04:56:49.872Z,988
2022-09-28T04:57:52.697Z,988
2022-09-28T04:58:55.654Z,988
2022-09-28T04:59:59.100Z,988
2022-09-28T05:01:02.608Z,988
2022-09-28T05:02:06.617Z,988
2022-09-28T05:03:10.073Z,988
2022-09-28T05:04:13.224Z,988
2022-09-28T05:05:16.026Z,988
2022-09-28T05:06:18.827Z,988
2022-09-28T05:07:21.425Z,988.1
2022-09-28T05:08:24.131Z,988
2022-09-28T05:09:26.703Z,988
2022-09-28T05:10:29.512Z,988.1
2022-09-28T05:11:33.694Z,988.1
2022-09-28T05:12:36.811Z,988.1
2022-09-28T05:13:39.944Z,988.1
2022-09-28T05:14:42.647Z,988.1
2022-09-28T05:15:46.074Z,988.1
2022-09-28T05:16:48.740Z,988.1
2022-09-28T05:17:52.247Z,988.1
2022-09-28T05:18:55.656Z,988.1
2022-09-28T05:19:58.380Z,988.1
2022-09-28T05:21:00.915Z,988.1
2022-09-28T05:22:04.348Z,988
2022-09-28T05:23:06.944Z,988
2022-09-28T05:24:09.889Z,988.1
2022-09-28T05:25:12.884Z,988.1
2022-09-28T05:26:15.420Z,988.1
2022-09-28T05:27:19.552Z,988.1
2022-09-28T05:28:22.442Z,988.1
2022-09-28T05:29:25.800Z,988.1
2022-09-28T05:30:34.927Z,988.1
2022-09-28T05:31:38.496Z,988.1
2022-09-28T05:32:41.998Z,988.1
2022-09-28T05:33:45.145Z,988.1
2022-09-28T05:34:47.946Z,988.1
2022-09-28T05:35:59.108Z,988.1
2022-09-28T05:37:05.121Z,988.1
2022-09-28T05:38:08.002Z,988.1
2022-09-28T05:39:10.982Z,988.1
2022-09-28T05:40:14.488Z,988
2022-09-28T05:41:18.357Z,988.1
2022-09-28T05:42:21.897Z,988.1
2022-09-28T05:43:25.638Z,988
2022-09-28T05:44:28.840Z,988.1
2022-09-28T05:45:31.639Z,988
2022-09-28T05:46:34.763Z,988
2022-09-28T05:47:37.569Z,988
2022-09-28T05:48:40.156Z,988
2022-09-28T05:49:43.034Z,988.1
2022-09-28T05:50:46.754Z,988.1
2022-09-28T05:51:49.559Z,988.1
2022-09-28T05:52:52.707Z,988.1
2022-09-28T05:53:55.852Z,988.1
2022-09-28T05:55:07.563Z,988.1
2022-09-28T05:56:10.361Z,988.2
2022-09-28T05:57:13.550Z,988.2
2022-09-28T05:58:17.397Z,988.1
2022-09-28T05:59:20.559Z,988.2
2022-09-28T06:00:24.067Z,988.2
2022-09-28T06:01:26.604Z,988.2
2022-09-28T06:02:30.504Z,988.2
2022-09-28T06:03:33.590Z,988.2
2022-09-28T06:04:36.944Z,988.2
2022-09-28T06:05:40.360Z,988.2
2022-09-28T06:06:43.439Z,988.3
2022-09-28T06:07:45.741Z,988.2
2022-09-28T06:08:48.696Z,988.2
2022-09-28T06:09:51.854Z,988.2
2022-09-28T06:10:54.639Z,988.2
2022-09-28T06:11:57.806Z,988.2
2022-09-28T06:13:00.989Z,988.2
2022-09-28T06:14:04.292Z,988.2
2022-09-28T06:15:07.087Z,988.3
2022-09-28T06:16:09.986Z,988.2
2022-09-28T06:17:13.467Z,988.3
2022-09-28T06:18:16.455Z,988.2
2022-09-28T06:19:19.635Z,988.3
2022-09-28T06:20:23.357Z,988.3
2022-09-28T06:21:26.791Z,988.3
2022-09-28T06:22:30.788Z,988.3
2022-09-28T06:23:33.883Z,988.3
2022-09-28T06:24:36.051Z,988.3
2022-09-28T06:25:38.925Z,988.3
2022-09-28T06:26:42.277Z,988.3
2022-09-28T06:27:45.074Z,988.3
2022-09-28T06:28:47.735Z,988.4
2022-09-28T06:29:51.476Z,988.3
2022-09-28T06:30:54.595Z,988.3
2022-09-28T06:31:58.620Z,988.4
2022-09-28T06:33:02.156Z,988.4
2022-09-28T06:34:05.235Z,988.4
2022-09-28T06:35:08.590Z,988.4
2022-09-28T06:36:12.022Z,988.4
2022-09-28T06:37:15.484Z,988.4
2022-09-28T06:38:18.583Z,988.4
2022-09-28T06:39:22.593Z,988.4
2022-09-28T06:40:25.272Z,988.4
2022-09-28T06:41:28.696Z,988.4
2022-09-28T06:42:32.047Z,988.4
2022-09-28T06:43:35.252Z,988.3
2022-09-28T06:44:38.035Z,988.4
2022-09-28T06:45:41.710Z,988.4
2022-09-28T06:46:45.839Z,988.4
2022-09-28T06:47:48.926Z,988.4
2022-09-28T06:48:51.738Z,988.4
2022-09-28T06:49:55.357Z,988.4
2022-09-28T06:50:58.876Z,988.3
2022-09-28T06:52:01.873Z,988.4
2022-09-28T06:53:04.550Z,988.4
2022-09-28T06:54:07.259Z,988.4
2022-09-28T06:55:10.350Z,988.4
2022-09-28T06:56:14.011Z,988.4
2022-09-28T06:57:16.801Z,988.4
2022-09-28T06:58:20.257Z,988.4
2022-09-28T06:59:23.601Z,988.4
2022-09-28T07:00:26.561Z,988.5
2022-09-28T07:01:30.026Z,988.4
2022-09-28T07:02:33.375Z,988.4
2022-09-28T07:03:36.907Z,988.4
2022-09-28T07:04:39.796Z,988.4
2022-09-28T07:05:43.320Z,988.4
2022-09-28T07:06:46.141Z,988.5
2022-09-28T07:07:49.253Z,988.5
2022-09-28T07:09:25.094Z,988.5
2022-09-28T07:10:56.685Z,988.5
2022-09-28T07:11:59.275Z,988.5
2022-09-28T07:13:02.679Z,988.5
2022-09-28T07:14:06.669Z,988.5
2022-09-28T07:15:49.187Z,988.5
2022-09-28T07:17:14.330Z,988.5
2022-09-28T07:18:19.395Z,988.5
2022-09-28T07:19:23.298Z,988.6
2022-09-28T07:20:25.912Z,988.5
2022-09-28T07:21:31.235Z,988.6
2022-09-28T07:22:43.915Z,988.6
2022-09-28T07:23:54.458Z,988.6
2022-09-28T07:24:57.697Z,988.6
2022-09-28T07:26:00.835Z,988.6
2022-09-28T07:27:05.726Z,988.6
2022-09-28T07:28:09.069Z,988.6
2022-09-28T07:29:12.072Z,988.6
2022-09-28T07:30:15.817Z,988.6
2022-09-28T07:31:18.842Z,988.6
2022-09-28T07:32:23.171Z,988.6
2022-09-28T07:33:27.419Z,988.6
2022-09-28T07:34:30.545Z,988.6
2022-09-28T07:35:33.704Z,988.6
2022-09-28T07:36:36.583Z,988.6
2022-09-28T07:37:39.957Z,988.6
2022-09-28T07:38:42.772Z,988.6
2022-09-28T07:39:46.790Z,988.6
2022-09-28T07:40:49.655Z,988.6
2022-09-28T07:42:02.460Z,988.6
2022-09-28T07:43:06.069Z,988.6
2022-09-28T07:44:09.140Z,988.5
2022-09-28T07:45:12.157Z,988.6
2022-09-28T07:46:14.849Z,988.6
2022-09-28T07:47:19.215Z,988.6
2022-09-28T07:48:23.031Z,988.6
2022-09-28T07:49:26.032Z,988.6
2022-09-28T07:50:28.874Z,988.6
2022-09-28T07:51:32.008Z,988.6
2022-09-28T07:52:35.659Z,988.6
2022-09-28T07:53:38.847Z,988.6
2022-09-28T07:54:42.029Z,988.6
2022-09-28T07:55:45.684Z,988.7
2022-09-28T07:56:49.415Z,988.6
2022-09-28T07:57:52.793Z,988.6
2022-09-28T07:58:55.657Z,988.6
2022-09-28T07:59:59.664Z,988.7
2022-09-28T08:01:03.230Z,988.6
2022-09-28T08:02:06.937Z,988.6
2022-09-28T08:03:11.315Z,988.6
2022-09-28T08:04:15.493Z,988.6
2022-09-28T08:05:19.245Z,988.7
2022-09-28T08:06:22.429Z,988.7
2022-09-28T08:07:25.605Z,988.7
2022-09-28T08:08:28.412Z,988.7
2022-09-28T08:09:31.588Z,988.7
2022-09-28T08:10:34.525Z,988.7
2022-09-28T08:11:37.391Z,988.7
2022-09-28T08:12:40.820Z,988.7
2022-09-28T08:13:43.189Z,988.7
2022-09-28T08:14:46.099Z,988.7
2022-09-28T08:15:50.102Z,988.7
2022-09-28T08:16:53.942Z,988.7
2022-09-28T08:18:02.867Z,988.7
2022-09-28T08:19:06.054Z,988.7
2022-09-28T08:20:09.343Z,988.7
2022-09-28T08:21:12.986Z,988.7
2022-09-28T08:22:16.231Z,988.7
2022-09-28T08:23:19.951Z,988.7
2022-09-28T08:24:23.483Z,988.7
2022-09-28T08:25:26.824Z,988.7
2022-09-28T08:26:30.007Z,988.7
2022-09-28T08:27:33.383Z,988.7
2022-09-28T08:28:36.521Z,988.7
2022-09-28T08:29:39.489Z,988.8
2022-09-28T08:30:42.709Z,988.8
2022-09-28T08:31:46.368Z,988.8
2022-09-28T08:32:49.501Z,988.8
2022-09-28T08:33:52.696Z,988.8
2022-09-28T08:34:55.700Z,988.8
2022-09-28T08:35:59.635Z,988.7
2022-09-28T08:37:02.766Z,988.8
2022-09-28T08:38:05.500Z,988.7
2022-09-28T08:39:08.578Z,988.8
2022-09-28T08:40:11.457Z,988.8
2022-09-28T08:41:14.459Z,988.8
2022-09-28T08:42:17.453Z,988.8
2022-09-28T08:43:20.318Z,988.8
2022-09-28T08:44:22.919Z,988.8
2022-09-28T08:45:26.014Z,988.8
2022-09-28T08:46:28.906Z,988.8
2022-09-28T08:47:32.035Z,988.8
2022-09-28T08:48:35.492Z,988.8
2022-09-28T08:49:38.218Z,988.9
2022-09-28T08:50:41.866Z,988.8
2022-09-28T08:51:45.605Z,988.8
2022-09-28T08:52:48.775Z,988.8
2022-09-28T08:53:52.641Z,988.8
2022-09-28T08:54:56.081Z,988.8
2022-09-28T08:55:58.323Z,988.8
2022-09-28T08:57:01.846Z,988.8
2022-09-28T08:58:05.271Z,988.8
2022-09-28T08:59:08.218Z,988.8
2022-09-28T09:00:12.415Z,988.8
2022-09-28T09:01:16.391Z,988.8
2022-09-28T09:02:19.966Z,988.9
2022-09-28T09:03:23.477Z,988.8
2022-09-28T09:04:26.545Z,988.8
2022-09-28T09:05:29.639Z,988.8
2022-09-28T09:06:32.309Z,988.8
2022-09-28T09:07:35.963Z,988.8
2022-09-28T09:08:39.482Z,988.8
2022-09-28T09:09:42.627Z,988.8
2022-09-28T09:10:45.068Z,988.8
2022-09-28T09:11:48.066Z,988.8
2022-09-28T09:12:51.210Z,988.7
2022-09-28T09:13:55.110Z,988.8
2022-09-28T09:14:58.190Z,988.8
2022-09-28T09:16:00.939Z,988.7
2022-09-28T09:17:04.424Z,988.7
2022-09-28T09:18:08.480Z,988.7
2022-09-28T09:19:11.503Z,988.7
2022-09-28T09:20:14.957Z,988.8
2022-09-28T09:21:18.622Z,988.8
2022-09-28T09:22:21.417Z,988.8
2022-09-28T09:23:25.305Z,988.8
2022-09-28T09:24:28.951Z,988.8
2022-09-28T09:25:38.673Z,988.9
2022-09-28T09:26:41.435Z,988.8
2022-09-28T09:27:44.597Z,988.9
2022-09-28T09:28:47.397Z,988.8
2022-09-28T09:29:50.218Z,988.9
2022-09-28T09:30:53.144Z,988.9
2022-09-28T09:31:56.843Z,988.9
2022-09-28T09:33:00.193Z,988.8
2022-09-28T09:34:03.545Z,988.9
2022-09-28T09:35:06.618Z,988.9
2022-09-28T09:36:09.684Z,988.9
2022-09-28T09:37:13.113Z,988.9
2022-09-28T09:38:15.829Z,988.9
2022-09-28T09:39:19.639Z,988.9
2022-09-28T09:40:23.163Z,988.9
2022-09-28T09:41:26.539Z,988.9
2022-09-28T09:42:29.955Z,988.9
2022-09-28T09:43:33.960Z,988.9
2022-09-28T09:44:37.126Z,988.9
2022-09-28T09:45:40.822Z,988.9
2022-09-28T09:46:44.508Z,988.9
2022-09-28T09:47:47.476Z,988.9
2022-09-28T09:48:50.634Z,988.9
2022-09-28T09:49:54.086Z,988.9
2022-09-28T09:50:57.165Z,988.9
2022-09-28T09:52:00.346Z,988.9
2022-09-28T09:53:03.693Z,988.9
2022-09-28T09:54:07.342Z,988.9
2022-09-28T09:55:11.475Z,988.9
2022-09-28T09:56:15.319Z,988.9
2022-09-28T09:57:19.051Z,988.9
2022-09-28T09:58:22.254Z,989
2022-09-28T09:59:25.755Z,988.9
2022-09-28T10:00:28.899Z,988.8
2022-09-28T10:01:31.147Z,988.9
2022-09-28T10:02:34.841Z,988.9
2022-09-28T10:03:37.939Z,988.8
2022-09-28T10:04:41.356Z,988.9
2022-09-28T10:05:44.060Z,988.8
2022-09-28T10:06:47.007Z,988.8
2022-09-28T10:07:49.798Z,988.8
2022-09-28T10:08:52.669Z,988.9
2022-09-28T10:09:56.112Z,988.9
2022-09-28T10:10:59.849Z,988.9
2022-09-28T10:12:03.662Z,988.9
2022-09-28T10:13:07.024Z,988.9
2022-09-28T10:14:09.452Z,988.9
2022-09-28T10:15:12.542Z,988.9
2022-09-28T10:16:16.355Z,988.9
2022-09-28T10:17:19.906Z,988.9
2022-09-28T10:18:23.007Z,988.9
2022-09-28T10:19:26.655Z,988.8
2022-09-28T10:20:30.395Z,988.8
2022-09-28T10:21:33.565Z,988.9
2022-09-28T10:22:36.742Z,988.9
2022-09-28T10:23:40.398Z,988.8
2022-09-28T10:24:43.206Z,988.9
2022-09-28T10:25:46.205Z,988.9
2022-09-28T10:26:49.687Z,988.9
2022-09-28T10:27:53.295Z,988.9
2022-09-28T10:28:56.740Z,988.9
2022-09-28T10:30:00.223Z,988.8
2022-09-28T10:31:03.629Z,988.8
2022-09-28T10:32:07.131Z,988.8
2022-09-28T10:33:11.191Z,988.8
2022-09-28T10:34:14.509Z,988.8
2022-09-28T10:35:18.745Z,988.8
2022-09-28T10:36:22.275Z,988.8
2022-09-28T10:37:25.270Z,988.8
2022-09-28T10:38:28.162Z,988.8
2022-09-28T10:39:31.613Z,988.9
2022-09-28T10:40:35.213Z,988.8
2022-09-28T10:41:38.324Z,988.9
2022-09-28T10:42:42.431Z,988.9
2022-09-28T10:43:50.666Z,988.8
2022-09-28T10:45:00.487Z,988.9
2022-09-28T10:46:03.507Z,988.9
2022-09-28T10:47:06.584Z,988.9
2022-09-28T10:48:09.107Z,988.8
2022-09-28T10:49:11.430Z,988.9
2022-09-28T10:50:14.222Z,988.8
2022-09-28T10:51:16.747Z,988.8
2022-09-28T10:52:19.919Z,988.8
2022-09-28T10:53:23.068Z,988.8
2022-09-28T10:54:27.144Z,988.8
2022-09-28T10:55:29.854Z,988.8
2022-09-28T10:56:33.207Z,988.8
2022-09-28T10:57:36.188Z,988.8
2022-09-28T10:58:39.745Z,988.9
2022-09-28T10:59:43.127Z,988.9
2022-09-28T11:00:46.633Z,988.9
2022-09-28T11:01:50.116Z,988.8
2022-09-28T11:02:53.163Z,988.8
2022-09-28T11:03:56.112Z,988.8
2022-09-28T11:04:59.184Z,988.9
2022-09-28T11:06:02.177Z,988.9
2022-09-28T11:07:06.196Z,988.9
2022-09-28T11:08:09.191Z,988.9
2022-09-28T11:09:12.055Z,988.9
2022-09-28T11:10:15.745Z,988.9
2022-09-28T11:11:19.507Z,988.9
2022-09-28T11:12:23.503Z,988.9
2022-09-28T11:13:26.225Z,988.8
2022-09-28T11:14:30.367Z,988.8
2022-09-28T11:15:34.118Z,988.9
2022-09-28T11:16:37.629Z,988.8
2022-09-28T11:17:41.385Z,988.8
2022-09-28T11:18:45.189Z,988.8
2022-09-28T11:19:48.336Z,988.8
2022-09-28T11:20:51.332Z,988.8
2022-09-28T11:21:54.127Z,988.8
2022-09-28T11:22:57.317Z,988.8
2022-09-28T11:24:00.394Z,988.8
2022-09-28T11:25:03.922Z,988.9
2022-09-28T11:26:07.654Z,988.9
2022-09-28T11:27:11.104Z,988.9
2022-09-28T11:28:14.951Z,988.9
2022-09-28T11:29:18.452Z,988.9
2022-09-28T11:30:22.958Z,988.9
2022-09-28T11:31:26.584Z,988.9
2022-09-28T11:32:29.784Z,988.9
2022-09-28T11:33:32.847Z,988.8
2022-09-28T11:34:59.816Z,988.9
2022-09-28T11:36:03.666Z,988.9
2022-09-28T11:37:06.829Z,988.9
2022-09-28T11:38:09.450Z,988.9
2022-09-28T11:39:12.806Z,988.9
2022-09-28T11:40:16.123Z,988.9
2022-09-28T11:41:19.781Z,988.8
2022-09-28T11:42:23.482Z,988.8
2022-09-28T11:43:27.010Z,988.8
2022-09-28T11:44:33.968Z,988.7
2022-09-28T11:45:37.556Z,988.8
2022-09-28T11:46:41.437Z,988.8
2022-09-28T11:47:44.572Z,988.8
2022-09-28T11:48:47.918Z,988.8
2022-09-28T11:49:50.801Z,988.9
2022-09-28T11:50:54.280Z,988.9
2022-09-28T11:51:57.638Z,988.9
2022-09-28T11:53:00.443Z,988.9
2022-09-28T11:54:03.612Z,988.9
2022-09-28T11:55:06.498Z,988.8
2022-09-28T11:56:09.927Z,988.8
2022-09-28T11:57:13.623Z,988.9
2022-09-28T11:58:17.060Z,988.9
2022-09-28T11:59:19.664Z,988.9
2022-09-28T12:00:21.709Z,988.9
2022-09-28T12:01:24.966Z,989
2022-09-28T12:02:28.633Z,988.9
2022-09-28T12:03:32.310Z,989
2022-09-28T12:04:35.943Z,989
2022-09-28T12:05:39.372Z,989
2022-09-28T12:06:42.813Z,989
2022-09-28T12:07:45.970Z,989
2022-09-28T12:08:49.423Z,989
2022-09-28T12:09:52.762Z,989
2022-09-28T12:10:55.986Z,989
2022-09-28T12:11:59.688Z,989
2022-09-28T12:13:03.034Z,989
2022-09-28T12:14:05.920Z,989
2022-09-28T12:15:08.547Z,989.1
2022-09-28T12:18:23.871Z,989.1
2022-09-28T12:19:26.684Z,989.1
2022-09-28T12:20:30.130Z,989.1
2022-09-28T12:21:33.209Z,989.1
2022-09-28T12:22:36.635Z,989.1
2022-09-28T12:23:39.830Z,989.1
2022-09-28T12:24:43.569Z,989.1
2022-09-28T12:25:47.029Z,989.1
2022-09-28T12:26:49.903Z,989
2022-09-28T12:27:53.366Z,989.1
2022-09-28T12:28:56.364Z,989.1
2022-09-28T12:29:59.330Z,989.1
2022-09-28T12:31:02.528Z,989.1
2022-09-28T12:32:06.181Z,989.1
2022-09-28T12:33:09.022Z,989.1
2022-09-28T12:34:12.935Z,989.1
2022-09-28T12:35:16.404Z,989.2
2022-09-28T12:36:19.190Z,989.2
2022-09-28T12:37:21.975Z,989.2
2022-09-28T12:38:24.120Z,989.2
2022-09-28T12:39:57.346Z,989.2
2022-09-28T12:41:04.361Z,989.2
2022-09-28T12:42:07.705Z,989.2
2022-09-28T12:43:11.150Z,989.2
2022-09-28T12:44:13.794Z,989.2
2022-09-28T12:45:16.945Z,989.2
2022-09-28T12:46:20.267Z,989.2
2022-09-28T12:47:23.201Z,989.2
2022-09-28T12:48:26.390Z,989.2
2022-09-28T12:52:00.464Z,989.2
2022-09-28T12:53:03.934Z,989.3
2022-09-28T12:54:07.287Z,989.3
2022-09-28T12:56:16.874Z,989.3
2022-09-28T12:57:23.836Z,989.3
2022-09-28T12:58:26.560Z,989.3
2022-09-28T12:59:29.735Z,989.3
2022-09-28T13:00:32.518Z,989.2
2022-09-28T13:01:35.804Z,989.3
2022-09-28T13:02:39.622Z,989.3
2022-09-28T13:03:43.679Z,989.3
2022-09-28T13:04:47.833Z,989.3
2022-09-28T13:05:51.542Z,989.3
2022-09-28T13:06:54.904Z,989.3
2022-09-28T13:07:57.971Z,989.3
2022-09-28T13:09:01.140Z,989.3
2022-09-28T13:10:04.236Z,989.3
2022-09-28T13:11:08.368Z,989.3
2022-09-28T13:12:11.360Z,989.3
2022-09-28T13:13:15.079Z,989.3
2022-09-28T13:14:18.139Z,989.3
2022-09-28T13:15:21.568Z,989.3
2022-09-28T13:16:25.465Z,989.4
2022-09-28T13:17:28.742Z,989.3
2022-09-28T13:18:32.218Z,989.4
2022-09-28T13:19:35.311Z,989.3
2022-09-28T13:20:39.416Z,989.4
2022-09-28T13:21:42.486Z,989.4
2022-09-28T13:22:45.508Z,989.4
2022-09-28T13:23:48.965Z,989.4
2022-09-28T13:24:52.151Z,989.4
2022-09-28T13:25:54.869Z,989.4
2022-09-28T13:26:58.141Z,989.4
2022-09-28T13:28:00.756Z,989.4
2022-09-28T13:29:04.180Z,989.4
2022-09-28T13:30:07.352Z,989.4
2022-09-28T13:31:10.092Z,989.4
2022-09-28T13:32:12.133Z,989.3
2022-09-28T13:33:14.920Z,989.3
2022-09-28T13:34:18.067Z,989.3
2022-09-28T13:35:21.685Z,989.3
2022-09-28T13:36:25.933Z,989.3
2022-09-28T13:37:28.728Z,989.3
2022-09-28T13:38:31.828Z,989.3
2022-09-28T13:39:35.532Z,989.3
2022-09-28T13:40:39.451Z,989.3
2022-09-28T13:41:42.960Z,989.3
2022-09-28T13:42:46.026Z,989.3
2022-09-28T13:43:49.368Z,989.3
2022-09-28T13:44:52.273Z,989.3
2022-09-28T13:45:55.576Z,989.3
2022-09-28T13:46:58.952Z,989.2
2022-09-28T13:48:02.122Z,989.2
2022-09-28T13:49:05.477Z,989.2
2022-09-28T13:50:08.658Z,989.2
2022-09-28T13:51:11.666Z,989.2